Time;durP1;ratioP1;P1;durP2;ratioP2;P2;SDS_P1;SDS_P2;PMS_P1;PMS_P2;Temp;Humidity;BMP_temperature;BMP_pressure;BME280_temperature;BME280_humidity;BME280_pressure;Samples;Min_cycle;Max_cycle;Signal;HPM_P1;HPM_P2
2021/05/03 00:01:31;;;;;;;11.57;7.20;;;2.50;99.90;;;;;;5033764;28;20508;-83
2021/05/03 00:04:30;;;;;;;11.53;5.50;;;2.60;99.90;;;;;;4939573;29;20459;-82
2021/05/03 00:23:02;;;;;;;;;;;;;;;;;;;;;
2021/05/03 00:25:36;;;;;;;7.18;4.53;;;1.50;99.90;;;;;;5002361;28;20539;-83
2021/05/03 00:28:27;;;;;;;8.93;6.70;;;1.40;99.90;;;;;;5052689;28;20253;-83
2021/05/03 00:34:00;;;;;;;;;;;;;;;;;;;;;
2021/05/03 00:37:01;;;;;;;8.50;7.70;;;1.40;99.90;;;;;;5052781;28;20491;-83
2021/05/03 00:39:56;;;;;;;;;;;;;;;;;;;;;
2021/05/03 00:42:36;;;;;;;8.07;7.25;;;1.30;99.90;;;;;;5051452;28;20185;-83
2021/05/03 00:45:19;;;;;;;9.20;8.17;;;1.30;99.90;;;;;;5053708;28;20193;-83
2021/05/03 00:47:59;;;;;;;;;;;;;;;;;;;;;
2021/05/03 00:50:50;;;;;;;12.10;11.00;;;1.50;99.90;;;;;;5052522;28;20448;-83
2021/05/03 00:53:35;;;;;;;10.77;9.77;;;1.60;99.90;;;;;;5053270;28;20947;-83
2021/05/03 00:56:24;;;;;;;11.15;8.73;;;1.60;99.90;;;;;;5052480;28;20195;-84
2021/05/03 00:59:06;;;;;;;9.20;8.33;;;1.40;99.90;;;;;;5053168;28;20225;-83
2021/05/03 01:04:37;;;;;;;14.77;11.52;;;1.30;99.90;;;;;;5026507;28;20455;-84
2021/05/03 01:07:17;;;;;;;12.93;11.93;;;1.50;99.90;;;;;;5054344;28;20197;-83
2021/05/03 01:12:49;;;;;;;73.73;14.10;;;1.80;99.90;;;;;;5029482;28;20456;-82
2021/05/03 01:15:27;;;;;;;15.57;13.97;;;1.70;99.90;;;;;;5052520;28;20447;-83
2021/05/03 01:18:12;;;;;;;13.60;12.60;;;1.70;99.90;;;;;;5052485;28;20986;-83
2021/05/03 01:24:15;;;;;;;;;;;;;;;;;;;;;
2021/05/03 01:26:49;;;;;;;15.87;14.70;;;1.50;99.90;;;;;;5050576;28;20455;-83
2021/05/03 01:30:12;;;;;;;;;;;;;;;;;;;;;
2021/05/03 01:33:05;;;;;;;15.97;14.67;;;1.60;99.90;;;;;;5052160;28;20557;-83
2021/05/03 01:36:01;;;;;;;18.63;16.83;;;1.50;99.90;;;;;;5052821;28;20454;-83
2021/05/03 01:39:20;;;;;;;19.20;17.80;;;1.50;99.90;;;;;;5031939;28;20513;-83
2021/05/03 01:42:09;;;;;;;17.63;16.23;;;1.50;99.90;;;;;;5031997;28;20543;-82
2021/05/03 01:45:00;;;;;;;17.17;15.80;;;1.60;99.90;;;;;;5051804;28;20483;-82
2021/05/03 01:47:40;;;;;;;;;;;;;;;;;;;;;
2021/05/03 01:50:07;;;;;;;14.33;13.23;;;1.80;99.90;;;;;;5052166;28;20450;-76
2021/05/03 01:52:35;;;;;;;13.67;12.47;;;1.80;99.90;;;;;;5051742;28;20955;-82
2021/05/03 01:55:26;;;;;;;14.63;13.27;;;1.80;99.90;;;;;;5051973;28;20451;-82
2021/05/03 01:58:14;;;;;;;;;;;;;;;;;;;;;
2021/05/03 02:00:47;;;;;;;14.53;13.23;;;1.80;99.90;;;;;;5050039;28;20458;-82
2021/05/03 02:03:49;;;;;;;12.97;11.67;;;1.80;99.90;;;;;;5052390;28;20512;-82
2021/05/03 02:09:55;;;;;;;12.77;11.57;;;1.80;99.90;;;;;;5050660;28;20455;-83
2021/05/03 02:12:41;;;;;;;13.97;12.50;;;1.70;99.90;;;;;;4969337;28;20538;-84
2021/05/03 02:16:03;;;;;;;;;;;;;;;;;;;;;
2021/05/03 02:18:42;;;;;;;;;;;;;;;;;;;;;
2021/05/03 02:21:24;;;;;;;15.00;13.57;;;1.50;99.90;;;;;;5027460;28;20456;-84
2021/05/03 02:24:03;;;;;;;16.27;15.07;;;1.50;99.90;;;;;;5033058;28;20792;-82
2021/05/03 02:26:45;;;;;;;;;;;;;;;;;;;;;
2021/05/03 02:32:18;;;;;;;16.80;15.45;;;1.40;99.90;;;;;;5032463;28;20484;-82
2021/05/03 02:35:30;;;;;;;15.80;14.70;;;1.40;99.90;;;;;;5052160;28;20687;-82
2021/05/03 02:38:40;;;;;;;14.65;13.65;;;1.60;99.90;;;;;;5052023;28;20818;-83
2021/05/03 02:44:28;;;;;;;16.93;15.67;;;1.50;99.90;;;;;;5055408;28;20196;-81
2021/05/03 02:47:28;;;;;;;18.73;17.42;;;1.40;99.90;;;;;;5055808;28;20443;-83
2021/05/03 02:49:54;;;;;;;15.52;14.43;;;1.40;99.90;;;;;;5055549;28;20196;-80
2021/05/03 02:59:33;;;;;;;14.07;12.93;;;0.70;99.90;;;;;;4935105;29;20603;-83
2021/05/03 03:02:12;;;;;;;15.88;14.43;;;0.60;99.90;;;;;;4861105;29;20295;-82
2021/05/03 03:05:19;;;;;;;;;;;;;;;;;;;;;
2021/05/03 03:11:19;;;;;;;;;;;;;;;;;;;;;
2021/05/03 03:14:20;;;;;;;20.60;19.40;;;0.60;99.90;;;;;;5054756;28;20284;-83
2021/05/03 03:20:19;;;;;;;19.58;18.27;;;0.70;99.90;;;;;;4978290;28;20462;-78
2021/05/03 03:23:24;;;;;;;20.55;19.17;;;0.70;99.90;;;;;;5055096;28;20311;-82
2021/05/03 03:29:56;;;;;;;;;;;;;;;;;;;;;
2021/05/03 04:01:23;;;;;;;;;;;;;;;;;;;;;
2021/05/03 04:04:45;;;;;;;;;;;;;;;;;;;;;
2021/05/03 04:11:15;;;;;;;40.25;38.15;;;-0.60;99.90;;;;;;4903724;29;20265;-83
2021/05/03 04:28:03;;;;;;;46.55;44.25;;;0.00;99.90;;;;;;4767757;30;20207;-82
2021/05/03 04:40:45;;;;;;;;;;;;;;;;;;;;;
2021/05/03 04:43:47;;;;;;;;;;;;;;;;;;;;;
2021/05/03 04:47:01;;;;;;;51.85;49.45;;;1.00;99.90;;;;;;4925269;28;20199;-83
2021/05/03 04:50:12;;;;;;;;;;;;;;;;;;;;;
2021/05/03 05:14:50;;;;;;;13.50;6.33;;;3.60;99.90;;;;;;4857629;29;20460;-83
2021/05/03 05:17:19;;;;;;;9.73;4.97;;;3.80;99.90;;;;;;4895233;29;20465;-82
2021/05/03 05:20:12;;;;;;;9.37;4.23;;;3.90;99.90;;;;;;4906243;29;20491;-83
2021/05/03 05:23:11;;;;;;;;;;;;;;;;;;;;;
2021/05/03 05:35:46;;;;;;;11.17;6.23;;;4.50;99.90;;;;;;4839645;29;20955;-82
2021/05/03 05:38:29;;;;;;;11.37;5.10;;;4.50;99.10;;;;;;4855509;29;20463;-83
2021/05/03 05:41:37;;;;;;;;;;;;;;;;;;;;;
2021/05/03 06:00:00;;;;;;;;;;;;;;;;;;;;;
2021/05/03 06:02:54;;;;;;;13.97;6.20;;;5.20;75.90;;;;;;4964222;28;20950;-81
2021/05/03 06:05:32;;;;;;;;;;;;;;;;;;;;;
2021/05/03 06:11:50;;;;;;;9.37;3.73;;;5.00;70.60;;;;;;4994452;28;20456;-83
2021/05/03 06:14:45;;;;;;;;;;;;;;;;;;;;;
2021/05/03 06:17:21;;;;;;;12.07;4.30;;;5.20;71.20;;;;;;4936558;28;20462;-83
2021/05/03 06:20:27;;;;;;;10.93;5.07;;;5.60;66.30;;;;;;4936604;29;20549;-82
2021/05/03 06:26:10;;;;;;;11.30;4.13;;;5.90;53.20;;;;;;4894202;29;20936;-82
2021/05/03 06:28:44;;;;;;;11.63;4.70;;;6.30;53.30;;;;;;4856956;29;20534;-83
2021/05/03 06:31:21;;;;;;;;;;;;;;;;;;;;;
2021/05/03 06:33:57;;;;;;;8.73;2.50;;;6.70;42.00;;;;;;4897297;29;20451;-81
2021/05/03 06:36:32;;;;;;;12.80;3.70;;;6.90;38.60;;;;;;4947832;28;20458;-82
2021/05/03 06:39:15;;;;;;;14.70;5.37;;;6.90;34.90;;;;;;5014744;28;20478;-82
2021/05/03 06:47:40;;;;;;;10.20;3.30;;;6.70;35.70;;;;;;5051779;28;20443;-83
2021/05/03 06:50:25;;;;;;;18.50;4.50;;;6.80;34.80;;;;;;5054930;28;20547;-82
2021/05/03 06:52:55;;;;;;;12.13;3.93;;;6.90;33.70;;;;;;5046581;28;20987;-81
2021/05/03 06:55:27;;;;;;;12.63;3.67;;;7.00;34.10;;;;;;5055571;28;20460;-81
2021/05/03 06:57:57;;;;;;;26.83;5.53;;;7.10;31.90;;;;;;5054546;28;20945;-82
2021/05/03 07:03:43;;;;;;;10.53;3.53;;;7.40;32.20;;;;;;4933326;29;20459;-81
2021/05/03 07:06:20;;;;;;;10.07;2.70;;;7.50;29.90;;;;;;5005328;28;20459;-81
2021/05/03 07:11:42;;;;;;;12.20;3.80;;;7.60;28.70;;;;;;5052098;28;20935;-82
2021/05/03 07:21:30;;;;;;;10.43;3.43;;;8.00;25.90;;;;;;4968045;28;20451;-83
2021/05/03 07:24:14;;;;;;;13.03;4.10;;;8.20;23.30;;;;;;4972897;28;20544;-84
2021/05/03 07:43:23;;;;;;;10.30;3.30;;;9.40;16.50;;;;;;4840785;29;20466;-84
2021/05/03 07:46:14;;;;;;;11.57;4.10;;;9.60;17.30;;;;;;4970981;28;20536;-83
2021/05/03 07:48:56;;;;;;;13.00;3.60;;;9.80;14.80;;;;;;5009603;28;20962;-84
2021/05/03 07:52:02;;;;;;;;;;;;;;;;;;;;;
2021/05/03 07:57:59;;;;;;;15.80;2.73;;;10.30;10.10;;;;;;4970759;28;20454;-83
2021/05/03 08:04:29;;;;;;;;;;;;;;;;;;;;;
2021/05/03 08:07:48;;;;;;;;;;;;;;;;;;;;;
2021/05/03 08:43:29;;;;;;;;;;;;;;;;;;;;;
2021/05/03 09:04:52;;;;;;;26.90;3.63;;;14.50;1.00;;;;;;4727271;30;20929;-80
2021/05/03 09:13:39;;;;;;;29.50;3.67;;;15.80;1.00;;;;;;4720642;30;20472;-83
2021/05/03 09:26:43;;;;;;;;;;;;;;;;;;;;;
2021/05/03 10:28:20;;;;;;;;;;;;;;;;;;;;;
2021/05/03 10:31:54;;;;;;;;;;;;;;;;;;;;;
2021/05/03 10:34:38;;;;;;;28.50;4.50;;;14.50;1.00;;;;;;4800336;29;21026;-81
2021/05/03 11:45:33;;;;;;;;;;;;;;;;;;;;;
2021/05/03 11:48:18;;;;;;;27.37;5.20;;;13.90;1.00;;;;;;4866070;29;20456;-82
2021/05/03 11:51:08;;;;;;;28.53;7.43;;;14.00;1.00;;;;;;4878859;29;20467;-84
2021/05/03 11:54:16;;;;;;;;;;;;;;;;;;;;;
2021/05/03 12:12:13;;;;;;;;;;;;;;;;;;;;;
2021/05/03 12:14:57;;;;;;;39.87;4.40;;;20.00;1.00;;;;;;4817409;29;20528;-81
2021/05/03 12:17:25;;;;;;;38.70;4.07;;;19.40;1.00;;;;;;4866248;29;20456;-81
2021/05/03 12:19:57;;;;;;;39.43;4.20;;;18.40;1.00;;;;;;4877241;29;20494;-82
2021/05/03 12:22:27;;;;;;;38.27;4.00;;;17.90;1.00;;;;;;4876970;29;20463;-82
2021/05/03 12:25:07;;;;;;;36.67;4.40;;;17.20;1.00;;;;;;4877100;29;21011;-82
2021/05/03 12:30:25;;;;;;;30.10;3.63;;;16.60;1.00;;;;;;5019399;23;20496;-82
2021/05/03 12:32:53;;;;;;;30.83;4.13;;;16.80;1.00;;;;;;4971112;28;20490;-81
2021/05/03 12:35:24;;;;;;;29.73;5.27;;;16.90;1.00;;;;;;4971493;28;20450;-81
2021/05/03 12:38:12;;;;;;;29.13;4.13;;;16.60;1.00;;;;;;4971700;28;20470;-81
2021/05/03 12:40:47;;;;;;;27.60;3.77;;;16.50;1.00;;;;;;4986064;28;20457;-82
2021/05/03 12:43:14;;;;;;;30.07;3.87;;;16.50;1.00;;;;;;5011770;28;20463;-82
2021/05/03 12:46:03;;;;;;;31.10;3.83;;;16.50;1.00;;;;;;5012812;28;20457;-82
2021/05/03 12:48:38;;;;;;;27.20;3.57;;;17.00;1.00;;;;;;5012474;28;20457;-82
2021/05/03 12:51:17;;;;;;;27.40;2.93;;;18.00;1.00;;;;;;5012700;28;20488;-82
2021/05/03 12:54:25;;;;;;;;;;;;;;;;;;;;;
2021/05/03 12:56:57;;;;;;;32.30;4.40;;;17.10;1.00;;;;;;5011037;28;20480;-83
2021/05/03 12:59:43;;;;;;;29.60;3.93;;;16.70;1.00;;;;;;5012986;28;20495;-82
2021/05/03 13:02:28;;;;;;;30.10;4.53;;;17.10;1.00;;;;;;5011063;28;20469;-82
2021/05/03 13:05:20;;;;;;;29.10;3.47;;;17.30;1.00;;;;;;5013159;28;20453;-82
2021/05/03 13:08:06;;;;;;;30.73;5.03;;;17.50;1.00;;;;;;5013082;28;20532;-82
2021/05/03 13:11:01;;;;;;;30.43;4.20;;;17.40;1.00;;;;;;5012451;28;20596;-82
2021/05/03 13:22:55;;;;;;;31.97;3.40;;;18.00;1.00;;;;;;5011648;28;20449;-82
2021/05/03 13:25:39;;;;;;;32.63;4.07;;;17.70;1.00;;;;;;5012346;28;20518;-82
2021/05/03 13:28:44;;;;;;;;;;;;;;;;;;;;;
2021/05/03 13:31:17;;;;;;;35.37;4.70;;;17.50;1.00;;;;;;5006499;28;20495;-83
2021/05/03 13:34:16;;;;;;;30.87;3.60;;;17.30;1.00;;;;;;5012346;28;20948;-82
2021/05/03 13:36:45;;;;;;;32.20;4.23;;;17.00;1.00;;;;;;5012646;28;20815;-82
2021/05/03 13:42:19;;;;;;;;;;;;;;;;;;;;;
2021/05/03 13:44:51;;;;;;;28.60;3.70;;;16.20;1.00;;;;;;5012870;28;20462;-82
2021/05/03 13:47:20;;;;;;;28.73;3.50;;;16.40;1.00;;;;;;5012353;28;20552;-82
2021/05/03 13:49:46;;;;;;;26.53;3.17;;;16.40;1.00;;;;;;5012453;28;20489;-82
2021/05/03 13:52:36;;;;;;;24.90;2.60;;;16.90;1.00;;;;;;5012935;28;21015;-82
2021/05/03 13:55:12;;;;;;;26.13;3.00;;;16.60;1.00;;;;;;5013925;28;20449;-82
2021/05/03 13:57:39;;;;;;;27.03;3.17;;;16.40;1.00;;;;;;5011673;28;20449;-82
2021/05/03 14:03:37;;;;;;;;;;;;;;;;;;;;;
2021/05/03 14:06:19;;;;;;;25.20;2.70;;;16.10;1.00;;;;;;5012520;28;20441;-83
2021/05/03 14:09:26;;;;;;;;;;;;;;;;;;;;;
2021/05/03 14:12:08;;;;;;;25.80;3.77;;;15.60;1.00;;;;;;4948746;28;21054;-82
2021/05/03 14:14:36;;;;;;;26.47;4.60;;;15.60;1.00;;;;;;5013070;28;20453;-82
2021/05/03 14:17:10;;;;;;;26.83;3.72;;;15.80;1.00;;;;;;5011715;28;20553;-82
2021/05/03 14:20:21;;;;;;;25.27;3.53;;;16.30;1.00;;;;;;5012823;28;20201;-82
2021/05/03 14:23:13;;;;;;;26.07;3.10;;;17.10;1.00;;;;;;5007893;28;20453;-81
2021/05/03 14:26:18;;;;;;;;;;;;;;;;;;;;;
2021/05/03 14:28:53;;;;;;;28.50;3.03;;;16.80;1.00;;;;;;5004538;28;20473;-82
2021/05/03 14:37:45;;;;;;;30.60;3.27;;;18.40;1.00;;;;;;4936421;29;20452;-82
2021/05/03 14:41:05;;;;;;;;;;;;;;;;;;;;;
2021/05/03 14:44:19;;;;;;;31.10;2.90;;;18.10;1.00;;;;;;4939424;29;20872;-82
2021/05/03 14:47:02;;;;;;;31.50;4.00;;;17.10;1.00;;;;;;4860642;29;20910;-82
2021/05/03 14:53:12;;;;;;;27.50;2.70;;;17.00;1.00;;;;;;4852964;29;20555;-82
2021/05/03 14:56:32;;;;;;;29.67;3.53;;;18.10;1.00;;;;;;4860879;29;20480;-82
2021/05/03 15:04:05;;;;;;;29.77;3.00;;;17.40;1.00;;;;;;4769649;30;20464;-82
2021/05/03 15:07:00;;;;;;;29.43;2.93;;;16.90;1.00;;;;;;4869914;29;20554;-82
2021/05/03 15:09:49;;;;;;;28.20;2.80;;;16.80;1.00;;;;;;4955403;29;20850;-82
2021/05/03 15:15:59;;;;;;;26.43;2.53;;;16.50;1.00;;;;;;4973367;28;21062;-81
2021/05/03 15:21:41;;;;;;;;;;;;;;;;;;;;;
2021/05/03 15:24:38;;;;;;;24.23;2.67;;;16.30;1.00;;;;;;4999214;28;20531;-82
2021/05/03 15:30:55;;;;;;;23.90;2.33;;;16.50;1.00;;;;;;5029828;28;20492;-82
2021/05/03 15:33:29;;;;;;;24.90;2.53;;;16.60;1.00;;;;;;4942683;29;20499;-82
2021/05/03 15:36:02;;;;;;;31.20;2.50;;;16.10;1.00;;;;;;4934130;29;20488;-82
2021/05/03 15:38:30;;;;;;;25.80;3.40;;;16.20;1.00;;;;;;4966646;28;20548;-82
2021/05/03 15:41:04;;;;;;;26.20;3.70;;;16.10;1.00;;;;;;5013913;28;20448;-82
2021/05/03 15:57:47;;;;;;;;;;;;;;;;;;;;;
2021/05/03 16:00:46;;;;;;;;;;;;;;;;;;;;;
2021/05/03 16:23:47;;;;;;;26.83;3.10;;;17.60;1.00;;;;;;4952693;28;20446;-82
2021/05/03 16:26:43;;;;;;;26.27;3.10;;;17.50;1.00;;;;;;4974037;28;21018;-82
2021/05/03 16:30:02;;;;;;;;;;;;;;;;;;;;;
2021/05/03 16:32:30;;;;;;;29.77;3.40;;;16.50;1.00;;;;;;4952094;29;20503;-82
2021/05/03 16:35:07;;;;;;;27.93;3.70;;;15.90;1.00;;;;;;5016522;28;20455;-81
2021/05/03 16:38:25;;;;;;;25.47;3.50;;;15.60;1.00;;;;;;5032631;28;20459;-82
2021/05/03 16:43:46;;;;;;;24.90;3.30;;;15.90;1.00;;;;;;4989639;28;20465;-82
2021/05/03 16:46:14;;;;;;;22.50;2.87;;;16.90;1.00;;;;;;4990894;28;20450;-83
2021/05/03 16:48:54;;;;;;;23.03;2.50;;;17.00;1.00;;;;;;4990477;28;20966;-82
2021/05/03 16:51:33;;;;;;;;;;;;;;;;;;;;;
2021/05/03 16:54:03;;;;;;;26.10;2.73;;;17.70;1.00;;;;;;4992711;28;20464;-82
2021/05/03 16:56:57;;;;;;;30.10;3.70;;;17.70;1.00;;;;;;5010315;28;20460;-82
2021/05/03 16:59:29;;;;;;;25.83;2.93;;;17.50;1.00;;;;;;5010004;28;20540;-82
2021/05/03 17:02:39;;;;;;;;;;;;;;;;;;;;;
2021/05/03 17:05:17;;;;;;;26.10;3.37;;;16.90;1.00;;;;;;4995145;28;20455;-82
2021/05/03 17:07:48;;;;;;;24.10;2.30;;;16.50;1.00;;;;;;5051990;28;20899;-82
2021/05/03 17:13:04;;;;;;;22.87;2.20;;;17.00;1.00;;;;;;5050914;28;20940;-82
2021/05/03 17:15:32;;;;;;;23.63;2.60;;;17.70;1.00;;;;;;5051670;28;20447;-82
2021/05/03 17:17:59;;;;;;;24.60;2.97;;;17.30;1.00;;;;;;5051887;28;20463;-81
2021/05/03 17:20:27;;;;;;;23.37;2.70;;;16.70;1.00;;;;;;5051790;28;20542;-82
2021/05/03 17:22:58;;;;;;;24.20;2.70;;;16.20;1.00;;;;;;5052573;28;21358;-82
2021/05/03 17:25:26;;;;;;;23.53;3.10;;;16.00;1.00;;;;;;5053121;28;20458;-82
2021/05/03 17:27:57;;;;;;;23.87;3.10;;;15.70;1.00;;;;;;5051927;28;20462;-82
2021/05/03 17:30:28;;;;;;;22.43;3.67;;;15.10;1.00;;;;;;5052738;28;20491;-81
2021/05/03 17:33:03;;;;;;;29.25;4.20;;;14.30;1.00;;;;;;5052519;28;20467;-83
2021/05/03 17:35:34;;;;;;;24.27;3.90;;;13.90;1.00;;;;;;5052277;28;20452;-81
2021/05/03 17:38:01;;;;;;;19.30;2.90;;;13.60;1.00;;;;;;5052918;28;20501;-83
2021/05/03 17:40:39;;;;;;;24.93;3.40;;;13.60;1.00;;;;;;5053099;28;20854;-83
2021/05/03 17:43:13;;;;;;;19.10;3.23;;;13.50;1.00;;;;;;5051310;28;20454;-84
2021/05/03 17:45:41;;;;;;;21.63;2.97;;;13.40;1.00;;;;;;5052754;28;20463;-83
2021/05/03 17:48:11;;;;;;;21.80;3.47;;;13.20;1.00;;;;;;5052928;28;20462;-84
2021/05/03 17:50:44;;;;;;;16.57;2.50;;;13.10;1.00;;;;;;5052717;28;20487;-84
2021/05/03 17:53:15;;;;;;;16.17;2.77;;;13.10;1.00;;;;;;5052574;28;20463;-84
2021/05/03 17:56:00;;;;;;;16.70;3.17;;;12.90;1.00;;;;;;5052639;28;20505;-83
2021/05/03 17:58:43;;;;;;;16.00;2.80;;;12.80;1.00;;;;;;5051360;28;20508;-84
2021/05/03 18:01:16;;;;;;;19.80;3.63;;;12.80;1.00;;;;;;5052294;28;20540;-84
2021/05/03 18:03:52;;;;;;;16.23;2.53;;;12.80;1.00;;;;;;5052696;28;20459;-84
2021/05/03 18:06:53;;;;;;;;;;;;;;;;;;;;;
2021/05/03 18:09:32;;;;;;;15.50;3.03;;;12.70;1.00;;;;;;5049444;28;20442;-84
2021/05/03 18:12:30;;;;;;;16.17;3.53;;;12.70;1.00;;;;;;5055257;28;20469;-83
2021/05/03 18:15:06;;;;;;;15.37;2.90;;;12.60;1.00;;;;;;5045644;28;20479;-84
2021/05/03 18:17:53;;;;;;;;;;;;;;;;;;;;;
2021/05/03 18:20:37;;;;;;;15.27;2.97;;;12.40;1.00;;;;;;5055733;28;20193;-83
2021/05/03 18:29:35;;;;;;;14.60;2.90;;;12.30;1.00;;;;;;5055384;28;20569;-84
2021/05/03 18:32:30;;;;;;;15.07;3.10;;;12.10;1.00;;;;;;5056270;28;20550;-84
2021/05/03 18:35:36;;;;;;;28.10;4.17;;;12.00;1.00;;;;;;5032579;28;20487;-84
2021/05/03 18:38:45;;;;;;;15.50;3.27;;;11.90;1.00;;;;;;5014226;28;20992;-84
2021/05/03 18:42:03;;;;;;;;;;;;;;;;;;;;;
2021/05/03 18:44:36;;;;;;;12.90;2.00;;;11.80;1.00;;;;;;4936506;28;20466;-84
2021/05/03 18:47:29;;;;;;;15.53;3.27;;;11.70;1.00;;;;;;4936573;29;20507;-84
2021/05/03 18:50:03;;;;;;;14.63;3.10;;;11.80;1.00;;;;;;4861322;29;20519;-84
2021/05/03 18:52:37;;;;;;;13.57;2.30;;;11.70;1.00;;;;;;4930340;29;20468;-84
2021/05/03 18:55:07;;;;;;;14.90;2.53;;;11.60;1.00;;;;;;4936343;29;20457;-84
2021/05/03 18:57:47;;;;;;;13.77;2.87;;;11.60;1.00;;;;;;4950645;28;20464;-84
2021/05/03 19:00:20;;;;;;;21.40;3.80;;;11.50;1.00;;;;;;4975045;28;20845;-84
2021/05/03 19:02:57;;;;;;;;;;;;;;;;;;;;;
2021/05/03 19:05:27;;;;;;;14.13;3.53;;;11.60;1.00;;;;;;4974258;28;20465;-84
2021/05/03 19:08:00;;;;;;;14.07;3.50;;;11.60;1.00;;;;;;4974686;28;20466;-83
2021/05/03 19:10:28;;;;;;;25.60;3.07;;;11.60;1.00;;;;;;4982010;28;20492;-84
2021/05/03 19:13:13;;;;;;;13.20;2.80;;;11.50;1.00;;;;;;5054357;28;20457;-83
2021/05/03 19:15:47;;;;;;;15.10;3.57;;;11.50;1.00;;;;;;5432359;22;20519;-82
2021/05/03 19:18:17;;;;;;;14.33;3.43;;;11.50;1.00;;;;;;5015632;28;20464;-82
2021/05/03 19:20:55;;;;;;;14.13;2.83;;;11.50;1.00;;;;;;5014662;28;20464;-82
2021/05/03 19:26:21;;;;;;;16.37;4.70;;;11.40;1.00;;;;;;5580191;23;21007;-84
2021/05/03 19:29:03;;;;;;;14.50;2.80;;;11.10;1.00;;;;;;5014135;28;20910;-83
2021/05/03 19:31:35;;;;;;;14.00;2.43;;;10.90;1.00;;;;;;5014694;28;20545;-84
2021/05/03 19:34:08;;;;;;;13.10;2.40;;;10.80;1.00;;;;;;5015638;28;20994;-84
2021/05/03 19:39:30;;;;;;;12.17;2.37;;;11.20;1.00;;;;;;4993710;28;20458;-84
2021/05/03 19:42:01;;;;;;;25.23;4.27;;;11.30;1.00;;;;;;4949611;28;20460;-84
2021/05/03 19:45:08;;;;;;;13.57;2.53;;;11.30;1.00;;;;;;4995377;28;20858;-84
2021/05/03 19:47:40;;;;;;;12.27;2.60;;;11.40;1.00;;;;;;4994032;28;20518;-83
2021/05/03 19:50:28;;;;;;;15.53;3.37;;;11.30;1.00;;;;;;4995478;28;20482;-84
2021/05/03 19:53:27;;;;;;;13.23;3.37;;;11.30;1.00;;;;;;4995460;28;20471;-83
2021/05/03 20:05:38;;;;;;;;;;;;;;;;;;;;;
2021/05/03 20:08:10;;;;;;;12.30;2.90;;;10.80;1.00;;;;;;4983747;28;20462;-84
2021/05/03 20:11:15;;;;;;;;;;;;;;;;;;;;;
2021/05/03 20:13:54;;;;;;;;;;;;;;;;;;;;;
2021/05/03 20:16:26;;;;;;;12.00;2.60;;;10.90;1.00;;;;;;4958209;28;20455;-84
2021/05/03 20:18:59;;;;;;;14.10;3.27;;;11.00;1.00;;;;;;4975679;28;20785;-84
2021/05/03 20:24:27;;;;;;;13.93;3.03;;;10.80;1.00;;;;;;4972720;28;20459;-84
2021/05/03 20:27:00;;;;;;;12.83;3.27;;;10.80;1.00;;;;;;4974170;28;20459;-83
2021/05/03 20:29:57;;;;;;;12.50;2.63;;;10.70;1.00;;;;;;4975694;28;20464;-84
2021/05/03 20:32:49;;;;;;;;;;;;;;;;;;;;;
2021/05/03 20:35:47;;;;;;;12.30;3.30;;;10.60;1.00;;;;;;4962424;28;20439;-84
2021/05/03 20:41:58;;;;;;;;;;;;;;;;;;;;;
2021/05/03 20:44:30;;;;;;;12.73;3.00;;;10.80;1.00;;;;;;4971407;28;20462;-84
2021/05/03 20:47:12;;;;;;;;;;;;;;;;;;;;;
2021/05/03 20:50:02;;;;;;;13.07;3.97;;;10.80;1.00;;;;;;4975137;28;20457;-84
2021/05/03 20:55:42;;;;;;;13.60;3.33;;;10.70;1.00;;;;;;4954596;29;20473;-84
2021/05/03 20:58:08;;;;;;;17.00;3.70;;;10.80;1.00;;;;;;4954263;29;20549;-83
2021/05/03 21:00:48;;;;;;;13.87;4.37;;;10.90;1.00;;;;;;4955516;29;20464;-83
2021/05/03 21:03:30;;;;;;;14.10;2.90;;;11.00;1.00;;;;;;4955306;29;20469;-83
2021/05/03 21:05:56;;;;;;;13.73;3.73;;;10.90;1.00;;;;;;4955370;29;20456;-84
2021/05/03 21:11:30;;;;;;;13.87;2.90;;;11.00;1.00;;;;;;4937301;29;20521;-84
2021/05/03 21:13:56;;;;;;;17.10;3.40;;;10.90;1.00;;;;;;4950338;29;20484;-84
2021/05/03 21:16:49;;;;;;;12.47;2.60;;;11.00;1.00;;;;;;4955196;29;20469;-83
2021/05/03 21:22:10;;;;;;;12.60;2.97;;;11.00;1.00;;;;;;4948344;29;20467;-84
2021/05/03 21:24:53;;;;;;;12.53;2.37;;;11.00;1.00;;;;;;4954800;29;20551;-84
2021/05/03 21:27:42;;;;;;;13.70;3.07;;;11.00;1.00;;;;;;4953998;29;20462;-83
2021/05/03 21:30:21;;;;;;;;;;;;;;;;;;;;;
2021/05/03 21:32:56;;;;;;;12.43;2.63;;;10.90;1.00;;;;;;4920047;29;20462;-84
2021/05/03 21:35:25;;;;;;;12.90;3.20;;;11.00;1.00;;;;;;4955007;29;20458;-83
2021/05/03 21:37:55;;;;;;;14.70;3.50;;;11.00;1.00;;;;;;4954764;29;20497;-83
2021/05/03 21:40:55;;;;;;;;;;;;;;;;;;;;;
2021/05/03 21:43:45;;;;;;;14.20;3.13;;;11.00;1.00;;;;;;4952373;29;20460;-83
2021/05/03 21:46:19;;;;;;;11.77;1.70;;;11.00;1.00;;;;;;4954836;29;21024;-83
2021/05/03 21:49:03;;;;;;;12.90;3.00;;;11.00;1.00;;;;;;4955032;29;20462;-84
2021/05/03 21:51:56;;;;;;;13.70;2.30;;;11.10;1.00;;;;;;4954804;29;20498;-84
2021/05/03 21:54:28;;;;;;;25.10;2.73;;;11.20;1.00;;;;;;4954822;29;20465;-83
2021/05/03 21:57:05;;;;;;;14.17;2.97;;;11.20;1.00;;;;;;4953640;29;20463;-83
2021/05/03 21:59:34;;;;;;;15.43;4.00;;;11.30;1.00;;;;;;4954829;29;20845;-84
2021/05/03 22:02:04;;;;;;;13.50;3.10;;;11.30;1.00;;;;;;4954824;29;20470;-84
2021/05/03 22:04:46;;;;;;;13.83;2.70;;;11.40;1.00;;;;;;4954778;29;20470;-83
2021/05/03 22:07:17;;;;;;;13.83;2.90;;;11.40;1.00;;;;;;4954592;29;21045;-83
2021/05/03 22:09:45;;;;;;;13.20;2.40;;;11.50;1.00;;;;;;4954758;29;20453;-84
2021/05/03 22:12:22;;;;;;;12.80;2.73;;;11.50;1.00;;;;;;4953298;29;20487;-84
2021/05/03 22:15:00;;;;;;;15.47;3.50;;;11.50;1.00;;;;;;4954504;29;20833;-83
2021/05/03 22:17:44;;;;;;;13.70;2.60;;;11.30;1.00;;;;;;4954586;29;20546;-83
2021/05/03 22:23:41;;;;;;;14.50;3.20;;;11.30;1.00;;;;;;4954566;29;20497;-84
2021/05/03 22:26:01;;;;;;;13.60;2.47;;;11.30;1.00;;;;;;4954163;29;20451;-84
2021/05/03 22:28:36;;;;;;;18.17;4.87;;;11.30;1.00;;;;;;4956564;29;20454;-84
2021/05/03 22:31:28;;;;;;;12.77;2.17;;;11.40;1.00;;;;;;4954336;29;20486;-83
2021/05/03 22:33:59;;;;;;;12.50;2.07;;;11.40;1.00;;;;;;4954422;29;20552;-84
2021/05/03 22:36:32;;;;;;;13.20;2.33;;;11.40;1.00;;;;;;4954589;29;20459;-83
2021/05/03 22:39:16;;;;;;;12.10;2.13;;;11.40;1.00;;;;;;4954190;29;20542;-83
2021/05/03 23:09:50;;;;;;;12.97;2.80;;;11.50;1.00;;;;;;4955765;29;20447;-84
2021/05/03 23:18:10;;;;;;;;;;;;;;;;;;;;;
2021/05/03 23:20:52;;;;;;;;;;;;;;;;;;;;;
2021/05/03 23:23:26;;;;;;;15.43;2.73;;;11.60;1.00;;;;;;4939961;29;20450;-84
2021/05/03 23:25:52;;;;;;;12.93;2.43;;;11.70;1.00;;;;;;4957419;29;20459;-83
2021/05/03 23:28:26;;;;;;;13.43;2.43;;;11.70;1.00;;;;;;4956040;29;20455;-83
2021/05/03 23:31:06;;;;;;;13.40;1.87;;;11.70;1.00;;;;;;4957134;29;21105;-84
2021/05/03 23:33:51;;;;;;;14.47;3.50;;;11.80;1.00;;;;;;4957049;29;20453;-85
2021/05/03 23:36:25;;;;;;;15.87;2.50;;;11.90;1.00;;;;;;4936027;29;20456;-83
2021/05/03 23:38:58;;;;;;;13.47;1.80;;;11.90;1.00;;;;;;4956926;29;20491;-84
2021/05/03 23:41:28;;;;;;;14.13;2.93;;;11.90;1.00;;;;;;4956911;29;20458;-84
2021/05/03 23:43:55;;;;;;;16.80;2.60;;;11.90;1.00;;;;;;4955516;29;20487;-84
2021/05/03 23:46:30;;;;;;;13.60;2.37;;;11.90;1.00;;;;;;4957120;29;20967;-84
2021/05/03 23:48:57;;;;;;;14.37;2.23;;;11.90;1.00;;;;;;4956827;29;20521;-84
2021/05/03 23:51:28;;;;;;;13.70;2.07;;;12.00;1.00;;;;;;4956750;29;20526;-84
2021/05/03 23:54:13;;;;;;;12.97;1.70;;;12.10;1.00;;;;;;4956664;29;20823;-84
2021/05/03 23:57:12;;;;;;;;;;;;;;;;;;;;;
2021/05/03 23:59:57;;;;;;;;;;;;;;;;;;;;;
